Woodland Park, Colorado
Current Conditions -  °F | °C
As of 3:58 PM on Saturday 20 Dec 2014 (Local Time) from KAFF Reporting Station
Scattered Clouds Scattered Clouds  
Wind Chill: 44°   Ceiling: Unl
Heat Index: 48°   Visibility: 10mi
Dew Point: 14°   Wind: 8mph
Humidity: 26%   Direction: 270°W
Pressure: 29.94"   Gusts: NA
Location:  38.99°N, 105.05°W
Report Text: KAFF 202258Z AUTO 27007KT 10SM SCT080 09/M10 A2994 RMK AO2 SLP151 T00881101
Loading
Personal Weather Stations






























Interactive Weather Map New forecast layout! Learn more

10-Day Weather Forecast

Advertisements
Track Severe Weather on mobile